Angler Guide Weather for Fort Mcmurray -
Fort Mcmurray, Alberta Current Weather Conditions
Enter your "Place, State", US Zip Code or ICAO:  
Forecast Information Radar Information
Fort Mcmurray, Alberta, Canada  Lat: 56.65N, Lon: 111.22W
ICAO Used: CYVT
Current Conditions
Updated:
Sun & Moon Information:
Temp: N/A
Humidity: N/A
Wind Speed: N/A
Barometer: N/A
Dewpoint: N/A
Heat Index: N/A
Wind Chill: N/A
Civil Twilight: 7:32 AM MST
Moonrise: 11:45 AM MST Moon Phase:
Waxing Crescent Moon
Waxing Crescent Moon
Moonset: 7:35 PM MST
Sunrise: 8:17 AM MST
Sunset: 4:02 PM MST
Civil Twilight: 4:47 PM MST
Forecast for Fort Mcmurray, AB:
(Forecast based on TAF for )
1143 AM MST MON NOV 06 2006
  
AFTERNOONEVENING
LIGHT SNOWLIGHT SNOW
Light
Snow
Light
Snow
TAF based forecast:
Dated: 1143 AM MST MON NOV 06 2006
Afternoon...Overcast with light snow and mist with winds from the east at 6 mph. Possible periods of overcast with /a.
Evening...Overcast with light snow and mist with winds from the east at 6 mph. Possible periods of overcast with /a.
Original Encoded TAF:
Dated: 1143 AM MST MON NOV 06 2006
2006/11/06 18:43
CYVT 061843Z 061902 10005KT 4SM -SN BR OVC012 TEMPO 1902 P6SM NSW SCT012 OVC025=




Powered by Angler Guide.com
Copyright 2007, all rights reserved.